createdAt,value
2023-04-07T00:02:38.657Z,44.05
2023-04-07T00:07:48.832Z,44.37
2023-04-07T00:12:54.431Z,44.43
2023-04-07T00:17:55.983Z,45.17
2023-04-07T00:22:57.490Z,44.57
2023-04-07T00:27:58.994Z,44.56
2023-04-07T00:33:00.702Z,45.04
2023-04-07T00:38:02.242Z,44.59
2023-04-07T00:43:03.802Z,42.24
2023-04-07T00:48:05.919Z,40.78
2023-04-07T00:53:08.434Z,40.63
2023-04-07T00:58:10.395Z,41.55
2023-04-07T01:03:24.384Z,42.64
2023-04-07T01:08:44.946Z,42.65
2023-04-07T01:13:50.065Z,43.67
2023-04-07T01:19:11.613Z,44.08
2023-04-07T01:24:32.111Z,43.52
2023-04-07T01:29:42.139Z,43.38
2023-04-07T01:34:47.831Z,44.41
2023-04-07T01:39:49.382Z,43.35
2023-04-07T01:44:51.822Z,42.71
2023-04-07T01:49:55.197Z,42.23
2023-04-07T01:54:56.801Z,42.39
2023-04-07T01:59:59.638Z,41.56
2023-04-07T02:05:08.803Z,40.65
2023-04-07T02:10:15.264Z,40.36
2023-04-07T02:15:19.115Z,40.66
2023-04-07T02:20:22.304Z,41.14
2023-04-07T02:25:31.925Z,41.69
2023-04-07T02:30:33.899Z,41.13
2023-04-07T02:35:35.582Z,40.87
2023-04-07T02:40:37.194Z,40.80
2023-04-07T02:45:38.794Z,40.91
2023-04-07T02:50:40.246Z,40.82
2023-04-07T02:55:41.908Z,40.32
2023-04-07T03:00:43.499Z,40.39
2023-04-07T03:05:49.414Z,41.03
2023-04-07T03:10:51.111Z,40.78
2023-04-07T03:15:58.794Z,41.16
2023-04-07T03:21:05.104Z,41.48
2023-04-07T03:26:06.742Z,41.41
2023-04-07T03:31:11.262Z,41.31
2023-04-07T03:36:12.994Z,41.55
2023-04-07T03:41:15.790Z,41.81
2023-04-07T03:46:19.421Z,41.85
2023-04-07T03:51:21.189Z,41.84
2023-04-07T03:56:28.960Z,41.27
2023-04-07T04:01:32.768Z,41.62
2023-04-07T04:06:41.545Z,41.79
2023-04-07T04:11:52.323Z,41.91
2023-04-07T04:16:54.710Z,42.09
2023-04-07T04:22:19.083Z,41.69
2023-04-07T04:27:28.255Z,42.16
2023-04-07T04:32:38.267Z,42.55
2023-04-07T04:37:40.858Z,42.46
2023-04-07T04:42:45.460Z,42.21
2023-04-07T04:47:48.273Z,42.15
2023-04-07T04:52:51.182Z,41.91
2023-04-07T04:57:57.965Z,42.32
2023-04-07T05:03:09.443Z,41.48
2023-04-07T05:08:14.982Z,41.75
2023-04-07T05:13:17.480Z,42.35
2023-04-07T05:18:20.419Z,42.60
2023-04-07T05:23:22.566Z,42.96
2023-04-07T05:28:26.243Z,41.93
2023-04-07T05:33:30.541Z,41.28
2023-04-07T05:38:32.242Z,41.61
2023-04-07T05:43:41.381Z,41.68
2023-04-07T05:48:43.600Z,41.90
2023-04-07T05:53:45.178Z,41.67
2023-04-07T05:58:46.925Z,41.41
2023-04-07T06:03:50.271Z,41.60
2023-04-07T06:08:57.920Z,43.23
2023-04-07T06:14:00.036Z,44.29
2023-04-07T06:19:01.625Z,44.90
2023-04-07T06:24:04.200Z,45.03
2023-04-07T06:29:05.724Z,45.50
2023-04-07T06:34:07.217Z,44.90
2023-04-07T06:39:08.739Z,43.92
2023-04-07T06:44:10.476Z,43.88
2023-04-07T06:49:11.908Z,44.97
2023-04-07T06:54:13.359Z,44.02
2023-04-07T06:59:14.807Z,43.24
2023-04-07T07:04:16.571Z,43.03
2023-04-07T07:09:18.209Z,42.35
2023-04-07T07:14:19.663Z,41.71
2023-04-07T07:19:21.137Z,42.29
2023-04-07T07:24:22.579Z,42.23
2023-04-07T07:29:24.079Z,42.91
2023-04-07T07:34:25.745Z,40.55
2023-04-07T07:39:27.328Z,40.23
2023-04-07T07:44:30.761Z,39.83
2023-04-07T07:49:33.472Z,40.89
2023-04-07T07:54:35.092Z,39.33
2023-04-07T07:59:36.586Z,39.50
2023-04-07T08:04:38.147Z,38.36
2023-04-07T08:09:39.688Z,37.51
2023-04-07T08:14:41.294Z,35.88
2023-04-07T08:19:42.703Z,37.95
2023-04-07T08:30:07.355Z,36.46
2023-04-07T08:35:09.358Z,35.98
2023-04-07T08:40:11.780Z,36.99
2023-04-07T08:45:13.914Z,38.15
2023-04-07T08:50:17.458Z,37.23
2023-04-07T08:55:19.116Z,38.28
2023-04-07T09:00:20.858Z,37.28
2023-04-07T09:05:23.039Z,37.01
2023-04-07T09:10:24.468Z,36.88
2023-04-07T09:15:29.951Z,37.17
2023-04-07T09:21:02.155Z,37.88
2023-04-07T09:26:18.651Z,36.79
2023-04-07T09:31:22.781Z,38.61
2023-04-07T09:36:24.825Z,38.22
2023-04-07T09:41:27.726Z,37.20
2023-04-07T09:46:30.597Z,36.82
2023-04-07T09:51:32.299Z,36.73
2023-04-07T09:56:33.966Z,35.56
2023-04-07T10:01:35.850Z,33.86
2023-04-07T10:06:37.419Z,35.14
2023-04-07T10:11:40.750Z,34.85
2023-04-07T10:16:43.153Z,35.46
2023-04-07T10:21:45.187Z,36.22
2023-04-07T10:26:52.975Z,37.33
2023-04-07T10:31:54.639Z,36.24
2023-04-07T10:37:11.551Z,37.94
2023-04-07T10:42:38.039Z,35.80
2023-04-07T10:47:57.657Z,34.97
2023-04-07T10:53:12.785Z,36.04
2023-04-07T10:58:27.606Z,36.36
2023-04-07T11:03:31.444Z,36.96
2023-04-07T11:08:37.250Z,36.90
2023-04-07T11:13:46.926Z,38.73
2023-04-07T11:18:48.573Z,40.32
2023-04-07T11:23:50.214Z,40.94
2023-04-07T11:28:55.716Z,40.44
2023-04-07T11:34:04.945Z,41.09
2023-04-07T11:39:18.070Z,41.78
2023-04-07T11:44:19.933Z,41.82
2023-04-07T11:49:21.589Z,41.21
2023-04-07T11:54:23.063Z,41.18
2023-04-07T11:59:25.838Z,39.75
2023-04-07T12:04:27.391Z,41.30
2023-04-07T12:09:33.839Z,41.17
2023-04-07T12:14:36.054Z,41.71
2023-04-07T12:19:37.507Z,40.60
2023-04-07T12:24:38.935Z,41.89
2023-04-07T12:29:40.348Z,42.45
2023-04-07T12:34:41.839Z,42.71
2023-04-07T12:39:43.279Z,41.88
2023-04-07T12:44:44.828Z,42.42
2023-04-07T12:49:47.849Z,43.47
2023-04-07T12:54:50.660Z,43.44
2023-04-07T12:59:52.052Z,42.84
2023-04-07T13:04:53.485Z,42.64
2023-04-07T13:09:54.927Z,43.40
2023-04-07T13:15:00.302Z,43.33
2023-04-07T13:20:03.732Z,44.23
2023-04-07T13:25:05.773Z,46.00
2023-04-07T13:30:07.844Z,45.90
2023-04-07T13:35:09.319Z,45.51
2023-04-07T13:40:11.522Z,45.53
2023-04-07T13:45:13.046Z,45.76
2023-04-07T13:50:14.561Z,44.65
2023-04-07T13:55:16.171Z,45.73
2023-04-07T14:00:17.832Z,44.91
2023-04-07T14:05:19.269Z,45.37
2023-04-07T14:10:20.741Z,44.70
2023-04-07T14:15:22.271Z,46.20
2023-04-07T14:20:25.329Z,45.94
2023-04-07T14:25:28.091Z,44.21
2023-04-07T14:30:29.670Z,43.42
2023-04-07T14:35:31.223Z,42.73
2023-04-07T14:40:32.742Z,43.76
2023-04-07T14:45:34.881Z,43.24
2023-04-07T14:50:36.373Z,42.47
2023-04-07T14:55:37.892Z,42.04
2023-04-07T15:00:39.397Z,42.93
2023-04-07T15:05:40.853Z,41.97
2023-04-07T15:10:42.301Z,41.72
2023-04-07T15:15:43.858Z,41.01
2023-04-07T15:20:45.320Z,42.01
2023-04-07T15:25:47.560Z,42.71
2023-04-07T15:30:49.037Z,43.58
2023-04-07T15:35:50.662Z,43.55
2023-04-07T15:40:52.153Z,43.03
2023-04-07T15:45:55.619Z,43.15
2023-04-07T15:50:57.156Z,42.45
2023-04-07T15:55:58.612Z,43.45
2023-04-07T16:01:00.376Z,43.07
2023-04-07T16:06:01.946Z,42.98
2023-04-07T16:11:03.454Z,43.22
2023-04-07T16:16:05.182Z,44.16
2023-04-07T16:21:07.282Z,43.44
2023-04-07T16:26:09.069Z,43.49
2023-04-07T16:31:10.589Z,43.77
2023-04-07T16:36:12.172Z,44.28
2023-04-07T16:41:13.694Z,43.94
2023-04-07T16:46:15.216Z,44.87
2023-04-07T16:51:17.428Z,44.82
2023-04-07T16:56:20.975Z,44.55
2023-04-07T17:01:22.504Z,44.61
2023-04-07T17:06:23.970Z,45.51
2023-04-07T17:11:25.413Z,45.57
2023-04-07T17:16:26.953Z,45.74
2023-04-07T17:21:28.431Z,46.53
2023-04-07T17:26:29.918Z,46.70
2023-04-07T17:31:31.366Z,46.65
2023-04-07T17:36:33.053Z,46.97
2023-04-07T17:41:34.657Z,46.86
2023-04-07T17:46:36.242Z,46.80
2023-04-07T17:51:37.729Z,46.68
2023-04-07T17:56:39.228Z,46.86
2023-04-07T18:01:40.801Z,47.38
2023-04-07T18:06:42.393Z,47.17
2023-04-07T18:11:43.833Z,47.47
2023-04-07T18:16:45.319Z,47.96
2023-04-07T18:21:47.210Z,48.00
2023-04-07T18:26:48.695Z,48.26
2023-04-07T18:31:50.282Z,47.99
2023-04-07T18:36:52.136Z,47.53
2023-04-07T18:41:56.839Z,47.61
2023-04-07T18:46:58.341Z,47.85
2023-04-07T18:51:59.806Z,47.66
2023-04-07T18:57:01.374Z,47.59
2023-04-07T19:02:02.952Z,47.76
2023-04-07T19:07:04.614Z,48.02
2023-04-07T19:12:06.098Z,48.25
2023-04-07T19:17:07.635Z,47.89
2023-04-07T19:22:09.128Z,48.29
2023-04-07T19:27:10.674Z,47.91
2023-04-07T19:32:12.103Z,48.91
2023-04-07T19:37:13.550Z,48.61
2023-04-07T19:42:15.862Z,48.94
2023-04-07T19:47:17.403Z,48.43
2023-04-07T19:52:18.907Z,48.03
2023-04-07T19:57:20.422Z,48.21
2023-04-07T20:02:22.001Z,48.67
2023-04-07T20:07:23.474Z,48.39
2023-04-07T20:12:24.965Z,49.05
2023-04-07T20:17:26.527Z,48.72
2023-04-07T20:22:28.041Z,49.66
2023-04-07T20:27:29.463Z,50.10
2023-04-07T20:32:31.043Z,50.29
2023-04-07T20:37:32.538Z,49.18
2023-04-07T20:42:34.572Z,48.57
2023-04-07T20:47:36.090Z,48.89
2023-04-07T20:52:37.605Z,48.57
2023-04-07T20:57:39.032Z,48.81
2023-04-07T21:02:40.615Z,48.41
2023-04-07T21:07:42.244Z,48.80
2023-04-07T21:12:43.739Z,49.22
2023-04-07T21:17:45.356Z,49.26
2023-04-07T21:22:46.856Z,49.44
2023-04-07T21:27:48.406Z,49.58
2023-04-07T21:32:50.043Z,50.04
2023-04-07T21:37:51.599Z,50.52
2023-04-07T21:42:53.085Z,50.26
2023-04-07T21:47:54.568Z,50.51
2023-04-07T21:52:56.020Z,51.04
2023-04-07T21:57:57.489Z,51.49
2023-04-07T22:02:59.270Z,51.10
2023-04-07T22:08:00.875Z,51.56
2023-04-07T22:13:02.370Z,51.18
2023-04-07T22:18:03.916Z,51.13
2023-04-07T22:23:05.420Z,51.12
2023-04-07T22:28:06.972Z,50.63
2023-04-07T22:33:10.174Z,50.76
2023-04-07T22:38:11.808Z,51.01
2023-04-07T22:43:13.216Z,51.18
2023-04-07T22:48:14.808Z,51.67
2023-04-07T22:53:16.260Z,51.42
2023-04-07T22:58:17.706Z,52.37
2023-04-07T23:03:19.258Z,51.88
2023-04-07T23:08:20.913Z,52.59
2023-04-07T23:13:22.414Z,52.93
2023-04-07T23:18:23.940Z,52.59
2023-04-07T23:23:25.504Z,52.65
2023-04-07T23:28:26.969Z,52.36
2023-04-07T23:33:30.671Z,52.81
2023-04-07T23:38:32.172Z,52.86
2023-04-07T23:43:33.790Z,53.12
2023-04-07T23:48:35.290Z,53.66
2023-04-07T23:53:36.736Z,53.16
2023-04-07T23:58:38.264Z,52.78
